createdAt,value
2023-05-05T00:00:51.017Z,47.45
2023-05-05T00:03:17.664Z,47.54
2023-05-05T00:05:44.295Z,47.48
2023-05-05T00:08:10.819Z,47.41
2023-05-05T00:10:37.343Z,47.65
2023-05-05T00:13:04.044Z,47.58
2023-05-05T00:15:30.589Z,47.61
2023-05-05T00:17:57.180Z,47.54
2023-05-05T00:20:23.747Z,47.63
2023-05-05T00:22:50.275Z,47.56
2023-05-05T00:25:16.819Z,47.38
2023-05-05T00:27:43.377Z,47.35
2023-05-05T00:30:10.049Z,47.32
2023-05-05T00:32:36.770Z,47.38
2023-05-05T00:35:03.334Z,47.49
2023-05-05T00:37:29.877Z,47.44
2023-05-05T00:39:56.440Z,47.55
2023-05-05T00:42:22.993Z,47.63
2023-05-05T00:44:49.518Z,47.64
2023-05-05T00:47:16.071Z,47.77
2023-05-05T00:49:42.615Z,47.74
2023-05-05T00:52:09.167Z,47.87
2023-05-05T00:54:35.714Z,47.67
2023-05-05T00:57:02.297Z,47.94
2023-05-05T00:59:28.848Z,47.85
2023-05-05T05:06:44.162Z,48.30
2023-05-05T05:09:10.718Z,48.33
2023-05-05T05:11:37.272Z,48.34
2023-05-05T05:14:03.814Z,48.27
2023-05-05T05:16:30.596Z,48.47
2023-05-05T05:18:57.180Z,48.32
2023-05-05T05:21:23.719Z,48.32
2023-05-05T05:23:50.254Z,48.47
2023-05-05T05:26:16.799Z,48.38
2023-05-05T05:28:43.348Z,48.30
2023-05-05T05:31:09.906Z,48.29
2023-05-05T05:33:36.449Z,48.20
2023-05-05T05:36:02.996Z,48.44
2023-05-05T05:38:29.550Z,48.32
2023-05-05T05:40:56.108Z,48.36
2023-05-05T05:43:22.646Z,48.49
2023-05-05T05:45:49.214Z,48.54
2023-05-05T05:48:15.746Z,48.53
2023-05-05T05:50:42.294Z,48.40
2023-05-05T05:53:08.837Z,48.44
2023-05-05T05:55:35.395Z,48.35
2023-05-05T05:58:01.934Z,48.34
2023-05-05T06:00:28.469Z,48.49
2023-05-05T06:02:55.062Z,48.57
2023-05-05T06:05:21.638Z,48.70
2023-05-05T06:07:48.186Z,48.48
2023-05-05T06:10:26.642Z,48.15
2023-05-05T06:12:54.775Z,48.08
2023-05-05T06:15:21.362Z,48.06
2023-05-05T06:17:47.939Z,48.08
2023-05-05T06:20:14.491Z,48.08
2023-05-05T06:22:41.054Z,48.12
2023-05-05T06:25:07.604Z,48.17
2023-05-05T06:27:34.142Z,48.32
2023-05-05T06:30:00.678Z,48.25
2023-05-05T06:32:27.244Z,48.33
2023-05-05T06:34:53.792Z,48.36
2023-05-05T06:37:20.330Z,48.21
2023-05-05T06:39:46.893Z,48.15
2023-05-05T06:42:13.443Z,48.23
2023-05-05T06:44:39.980Z,48.10
2023-05-05T06:47:06.640Z,48.05
2023-05-05T06:49:33.246Z,48.12
2023-05-05T06:51:59.790Z,48.14
2023-05-05T06:54:26.341Z,48.01
2023-05-05T06:56:52.887Z,48.06
2023-05-05T06:59:19.431Z,48.24
2023-05-05T07:01:45.998Z,48.18
2023-05-05T07:04:12.614Z,48.04
2023-05-05T07:06:39.199Z,48.05
2023-05-05T07:09:05.722Z,48.17
2023-05-05T07:11:32.275Z,48.21
2023-05-05T07:13:58.805Z,48.11
2023-05-05T07:16:25.483Z,48.07
2023-05-05T07:18:52.083Z,48.29
2023-05-05T07:21:18.613Z,48.23
2023-05-05T07:23:45.163Z,48.42
2023-05-05T07:26:11.763Z,48.34
2023-05-05T07:28:38.333Z,48.35
2023-05-05T07:31:04.884Z,48.40
2023-05-05T07:33:31.434Z,48.52
2023-05-05T07:35:57.969Z,48.60
2023-05-05T07:38:24.506Z,48.47
2023-05-05T07:40:51.061Z,48.52
2023-05-05T07:43:17.638Z,48.62
2023-05-05T07:45:44.301Z,48.65
2023-05-05T07:48:10.964Z,48.60
2023-05-05T07:50:37.496Z,48.67
2023-05-05T07:53:13.809Z,48.61
2023-05-05T07:55:41.550Z,48.56
2023-05-05T07:58:08.105Z,48.51
2023-05-05T08:00:34.657Z,48.55
2023-05-05T08:03:01.305Z,48.59
2023-05-05T08:05:27.982Z,48.30
2023-05-05T08:07:54.560Z,48.00
2023-05-05T08:10:21.126Z,46.89
2023-05-05T08:12:47.674Z,45.81
2023-05-05T08:15:14.216Z,47.93
2023-05-05T08:17:40.780Z,48.06
2023-05-05T08:20:07.353Z,47.98
2023-05-05T08:22:33.919Z,49.56
2023-05-05T08:25:00.472Z,49.82
2023-05-05T08:27:27.028Z,48.18
2023-05-05T08:29:53.575Z,48.43
2023-05-05T08:32:20.127Z,48.40
2023-05-05T08:34:46.663Z,47.96
2023-05-05T08:37:13.231Z,47.05
2023-05-05T08:39:39.785Z,48.27
2023-05-05T08:42:06.373Z,47.74
2023-05-05T08:44:32.902Z,46.89
2023-05-05T08:46:59.493Z,46.63
2023-05-05T08:49:26.113Z,46.27
2023-05-05T08:51:52.655Z,46.25
2023-05-05T08:54:19.180Z,45.34
2023-05-05T08:56:45.719Z,45.74
2023-05-05T08:59:12.245Z,45.12
2023-05-05T09:01:38.789Z,45.00
2023-05-05T09:04:05.342Z,44.36
2023-05-05T09:06:31.906Z,44.24
2023-05-05T09:08:59.671Z,43.85
2023-05-05T09:11:26.358Z,43.44
2023-05-05T09:13:52.920Z,44.00
2023-05-05T09:16:19.575Z,43.58
2023-05-05T09:18:46.222Z,44.61
2023-05-05T09:21:12.773Z,43.71
2023-05-05T09:23:39.327Z,43.89
2023-05-05T09:26:05.873Z,43.82
2023-05-05T09:28:32.435Z,43.79
2023-05-05T09:30:59.020Z,43.95
2023-05-05T09:33:25.601Z,43.83
2023-05-05T09:35:52.127Z,43.55
2023-05-05T09:38:18.689Z,42.85
2023-05-05T09:40:45.233Z,42.74
2023-05-05T09:43:11.792Z,42.87
2023-05-05T09:45:38.373Z,43.16
2023-05-05T09:48:04.984Z,42.88
2023-05-05T09:50:31.576Z,42.73
2023-05-05T09:52:58.135Z,42.49
2023-05-05T09:55:24.661Z,42.69
2023-05-05T09:57:51.201Z,42.64
2023-05-05T10:00:17.742Z,41.79
2023-05-05T10:02:44.313Z,41.86
2023-05-05T10:05:10.928Z,41.88
2023-05-05T10:07:37.529Z,41.91
2023-05-05T10:10:04.108Z,41.50
2023-05-05T10:12:30.722Z,41.86
2023-05-05T10:14:57.274Z,41.40
2023-05-05T10:17:23.830Z,42.03
2023-05-05T10:19:50.376Z,41.47
2023-05-05T10:22:16.911Z,40.98
2023-05-05T10:24:43.477Z,41.60
2023-05-05T10:27:10.973Z,41.32
2023-05-05T10:29:39.111Z,40.57
2023-05-05T10:32:21.394Z,40.55
2023-05-05T10:34:52.221Z,41.20
2023-05-05T10:37:18.785Z,41.45
2023-05-05T10:39:45.331Z,41.68
2023-05-05T10:42:11.871Z,41.01
2023-05-05T10:44:38.406Z,40.08
2023-05-05T10:47:04.973Z,40.73
2023-05-05T10:49:31.561Z,40.72
2023-05-05T10:51:58.097Z,40.45
2023-05-05T10:54:24.764Z,41.53
2023-05-05T10:56:51.378Z,41.39
2023-05-05T10:59:17.955Z,41.57
2023-05-05T11:01:44.503Z,41.05
2023-05-05T11:04:11.045Z,41.36
2023-05-05T11:06:37.613Z,40.90
2023-05-05T11:09:04.186Z,40.86
2023-05-05T11:11:30.754Z,40.74
2023-05-05T11:13:57.305Z,40.76
2023-05-05T11:16:23.882Z,40.14
2023-05-05T11:18:50.426Z,40.23
2023-05-05T11:21:17.147Z,40.32
2023-05-05T11:23:43.794Z,40.45
2023-05-05T11:26:10.360Z,40.49
2023-05-05T11:28:36.917Z,40.44
2023-05-05T11:31:03.512Z,40.32
2023-05-05T11:33:30.108Z,39.98
2023-05-05T11:35:56.646Z,39.71
2023-05-05T11:38:23.209Z,39.42
2023-05-05T11:40:49.746Z,39.92
2023-05-05T11:43:16.291Z,40.34
2023-05-05T11:45:42.841Z,40.28
2023-05-05T11:48:09.398Z,40.38
2023-05-05T11:50:35.983Z,39.99
2023-05-05T11:53:02.549Z,39.79
2023-05-05T11:55:29.110Z,40.14
2023-05-05T11:57:55.672Z,39.77
2023-05-05T12:00:22.342Z,40.73
2023-05-05T12:02:48.965Z,39.98
2023-05-05T12:05:15.597Z,40.06
2023-05-05T12:07:42.145Z,40.18
2023-05-05T12:10:08.944Z,40.73
2023-05-05T12:12:35.695Z,40.18
2023-05-05T12:15:02.252Z,41.02
2023-05-05T12:17:28.810Z,40.81
2023-05-05T12:19:55.390Z,40.44
2023-05-05T12:22:21.912Z,40.71
2023-05-05T12:24:48.464Z,40.26
2023-05-05T12:27:15.009Z,40.38
2023-05-05T12:29:41.535Z,40.66
2023-05-05T12:32:08.087Z,40.63
2023-05-05T12:34:34.763Z,40.26
2023-05-05T12:37:01.335Z,40.11
2023-05-05T12:39:27.904Z,40.11
2023-05-05T12:41:54.433Z,39.71
2023-05-05T12:44:21.024Z,40.07
2023-05-05T12:46:47.575Z,40.11
2023-05-05T12:49:14.133Z,40.83
2023-05-05T12:51:40.852Z,40.96
2023-05-05T12:54:07.440Z,40.77
2023-05-05T12:56:33.981Z,41.12
2023-05-05T12:59:00.560Z,41.98
2023-05-05T13:01:27.171Z,42.03
2023-05-05T13:03:53.743Z,42.16
2023-05-05T13:06:20.290Z,42.17
2023-05-05T13:08:46.878Z,42.18
2023-05-05T13:11:13.409Z,42.39
2023-05-05T13:13:39.976Z,42.52
2023-05-05T13:16:06.517Z,42.50
2023-05-05T13:18:33.071Z,42.94
2023-05-05T13:20:59.613Z,43.23
2023-05-05T13:23:26.169Z,43.51
2023-05-05T13:25:52.710Z,43.48
2023-05-05T13:28:19.302Z,43.32
2023-05-05T13:30:45.856Z,43.63
2023-05-05T13:33:12.407Z,43.89
2023-05-05T13:35:38.952Z,44.42
2023-05-05T13:38:05.507Z,44.93
2023-05-05T13:40:32.054Z,45.36
2023-05-05T13:42:58.603Z,45.76
2023-05-05T13:45:25.179Z,46.55
2023-05-05T13:47:51.735Z,47.71
2023-05-05T13:50:18.293Z,47.78
2023-05-05T13:52:44.841Z,47.46
2023-05-05T13:55:11.423Z,47.06
2023-05-05T13:57:37.983Z,47.63
2023-05-05T14:00:04.540Z,47.81
2023-05-05T14:02:31.141Z,47.09
2023-05-05T14:04:57.706Z,46.88
2023-05-05T14:07:24.224Z,47.02
2023-05-05T14:09:50.744Z,46.84
2023-05-05T14:12:17.316Z,46.63
2023-05-05T14:14:43.905Z,46.70
2023-05-05T14:17:10.456Z,46.57
2023-05-05T14:19:37.080Z,46.60
2023-05-05T14:22:03.634Z,46.51
2023-05-05T14:24:30.249Z,46.28
2023-05-05T14:26:56.801Z,46.28
2023-05-05T14:29:23.322Z,46.45
2023-05-05T14:31:49.916Z,46.41
2023-05-05T14:34:16.505Z,46.30
2023-05-05T14:36:43.092Z,46.39
2023-05-05T14:39:09.634Z,46.28
2023-05-05T14:41:36.186Z,46.31
2023-05-05T14:44:02.733Z,46.30
2023-05-05T14:46:29.311Z,46.31
2023-05-05T14:48:55.924Z,46.30
2023-05-05T14:51:22.472Z,46.15
2023-05-05T14:53:48.992Z,46.21
2023-05-05T14:56:15.533Z,46.44
2023-05-05T14:58:42.064Z,46.18
2023-05-05T15:01:08.669Z,46.10
2023-05-05T15:03:35.340Z,46.01
2023-05-05T15:06:01.961Z,45.99
2023-05-05T15:08:28.523Z,46.04
2023-05-05T15:10:55.066Z,46.25
2023-05-05T15:13:21.698Z,46.21
2023-05-05T15:15:48.368Z,46.45
2023-05-05T15:18:15.028Z,46.29
2023-05-05T15:20:41.572Z,46.13
2023-05-05T15:23:08.105Z,46.24
2023-05-05T15:25:34.665Z,46.19
2023-05-05T15:28:01.203Z,46.11
2023-05-05T15:30:27.732Z,46.24
2023-05-05T15:32:54.322Z,46.14
2023-05-05T15:35:20.879Z,46.32
2023-05-05T15:37:47.404Z,46.33
2023-05-05T15:40:13.939Z,46.15
2023-05-05T15:42:40.494Z,46.30
2023-05-05T15:45:07.236Z,46.17
2023-05-05T15:47:33.956Z,46.31
2023-05-05T15:50:00.535Z,46.26
2023-05-05T15:52:27.108Z,46.15
2023-05-05T15:54:53.695Z,46.12
2023-05-05T15:57:20.265Z,46.02
2023-05-05T15:59:46.820Z,46.11
2023-05-05T16:02:13.382Z,46.20
2023-05-05T16:04:39.933Z,46.14
2023-05-05T16:07:06.471Z,46.04
2023-05-05T16:09:33.075Z,46.19
2023-05-05T16:11:59.628Z,46.14
2023-05-05T16:14:26.184Z,46.20
2023-05-05T16:16:52.731Z,46.02
2023-05-05T16:19:19.295Z,46.22
2023-05-05T16:21:45.844Z,46.10
2023-05-05T16:24:12.382Z,46.10
2023-05-05T16:26:38.925Z,46.20
2023-05-05T16:29:05.466Z,46.18
2023-05-05T16:31:32.078Z,46.27
2023-05-05T16:33:58.651Z,46.30
2023-05-05T16:36:25.193Z,46.16
2023-05-05T16:38:51.733Z,46.24
2023-05-05T16:41:18.319Z,46.33
2023-05-05T16:43:44.870Z,46.34
2023-05-05T16:46:11.451Z,46.25
2023-05-05T16:48:37.992Z,46.45
2023-05-05T16:51:04.564Z,46.23
2023-05-05T16:53:31.092Z,46.42
2023-05-05T16:55:57.643Z,46.28
2023-05-05T16:58:24.203Z,46.17
2023-05-05T17:00:50.749Z,46.16
2023-05-05T17:03:17.293Z,46.11
2023-05-05T17:05:43.946Z,46.21
2023-05-05T17:08:10.484Z,46.06
2023-05-05T17:10:37.063Z,46.13
2023-05-05T17:13:03.666Z,46.08
2023-05-05T17:15:30.271Z,46.08
2023-05-05T17:17:56.851Z,46.16
2023-05-05T17:20:23.421Z,46.24
2023-05-05T17:22:49.966Z,46.22
2023-05-05T17:25:16.502Z,46.28
2023-05-05T17:27:43.079Z,46.25
2023-05-05T17:30:09.642Z,46.23
2023-05-05T17:32:36.213Z,46.27
2023-05-05T17:35:02.793Z,46.26
2023-05-05T17:37:29.373Z,46.63
2023-05-05T17:39:55.929Z,46.77
2023-05-05T17:42:22.588Z,46.64
2023-05-05T17:44:49.192Z,46.51
2023-05-05T17:47:15.737Z,46.33
2023-05-05T17:49:42.275Z,46.38
2023-05-05T17:52:08.813Z,46.44
2023-05-05T17:54:35.356Z,46.50
2023-05-05T17:57:01.889Z,46.42
2023-05-05T17:59:28.428Z,46.77
2023-05-05T18:01:54.955Z,46.50
2023-05-05T18:04:21.678Z,46.27
2023-05-05T18:06:48.225Z,46.20
2023-05-05T18:09:14.777Z,46.22
2023-05-05T18:11:41.341Z,46.05
2023-05-05T18:14:07.899Z,46.21
2023-05-05T18:16:34.527Z,46.13
2023-05-05T18:19:01.105Z,46.06
2023-05-05T18:21:27.659Z,46.19
2023-05-05T18:23:57.293Z,46.21
2023-05-05T18:26:28.403Z,46.36
2023-05-05T18:28:54.954Z,46.33
2023-05-05T18:31:21.558Z,46.53
2023-05-05T18:33:48.100Z,46.53
2023-05-05T18:36:14.647Z,46.42
2023-05-05T18:38:41.207Z,46.58
2023-05-05T18:41:07.774Z,46.45
2023-05-05T18:43:34.366Z,46.52
2023-05-05T18:46:00.910Z,46.28
2023-05-05T18:48:27.477Z,46.32
2023-05-05T18:50:54.059Z,46.20
2023-05-05T18:53:20.691Z,46.20
2023-05-05T18:55:47.252Z,46.37
2023-05-05T18:58:13.824Z,46.36
2023-05-05T19:00:40.408Z,46.29
2023-05-05T19:03:06.959Z,46.64
2023-05-05T19:05:33.550Z,46.41
2023-05-05T19:08:00.148Z,46.40
2023-05-05T19:10:26.707Z,46.46
2023-05-05T19:12:53.295Z,46.61
2023-05-05T19:15:19.864Z,46.55
2023-05-05T19:17:46.448Z,46.45
2023-05-05T19:20:13.110Z,46.41
2023-05-05T19:22:39.679Z,46.50
2023-05-05T19:25:06.229Z,46.66
2023-05-05T19:27:32.779Z,46.83
2023-05-05T19:29:59.329Z,46.64
2023-05-05T19:32:25.920Z,46.56
2023-05-05T19:34:52.482Z,46.57
2023-05-05T19:37:19.031Z,46.63
2023-05-05T19:39:45.654Z,46.76
2023-05-05T19:42:12.280Z,46.76
2023-05-05T19:44:38.985Z,46.69
2023-05-05T19:47:05.535Z,46.68
2023-05-05T19:49:32.104Z,46.76
2023-05-05T19:51:58.626Z,46.84
2023-05-05T19:54:25.176Z,46.71
2023-05-05T19:56:51.796Z,46.88
2023-05-05T19:59:18.336Z,46.83
2023-05-05T20:01:44.925Z,46.71
2023-05-05T20:04:11.488Z,46.79
2023-05-05T20:06:38.043Z,46.77
2023-05-05T20:09:04.606Z,46.95
2023-05-05T20:11:31.178Z,46.78
2023-05-05T20:13:57.730Z,46.93
2023-05-05T20:16:24.370Z,46.86
2023-05-05T20:18:50.962Z,46.93
2023-05-05T20:21:17.566Z,46.98
2023-05-05T20:23:44.132Z,47.03
2023-05-05T20:26:10.703Z,47.04
2023-05-05T20:28:37.234Z,47.07
2023-05-05T20:31:03.786Z,47.10
2023-05-05T20:33:30.413Z,47.43
2023-05-05T20:35:56.971Z,47.24
2023-05-05T20:38:23.541Z,47.20
2023-05-05T20:40:50.143Z,47.25
2023-05-05T20:43:16.721Z,47.26
2023-05-05T20:45:43.257Z,47.19
2023-05-05T20:48:09.858Z,47.07
2023-05-05T20:50:36.457Z,46.90
2023-05-05T20:53:02.993Z,46.78
2023-05-05T20:55:29.582Z,46.78
2023-05-05T20:57:56.146Z,46.85
2023-05-05T21:00:22.697Z,46.95
2023-05-05T21:02:49.350Z,46.98
2023-05-05T21:05:15.978Z,46.95
2023-05-05T21:07:42.530Z,47.15
2023-05-05T21:10:09.280Z,47.18
2023-05-05T21:12:36.043Z,47.16
2023-05-05T21:15:02.619Z,47.22
2023-05-05T21:17:29.199Z,47.16
2023-05-05T21:19:55.792Z,47.16
2023-05-05T21:22:22.354Z,47.10
2023-05-05T21:24:48.899Z,46.99
2023-05-05T21:27:15.437Z,47.06
2023-05-05T21:29:41.986Z,47.08
2023-05-05T21:32:08.617Z,47.23
2023-05-05T21:34:35.274Z,47.15
2023-05-05T21:37:01.843Z,47.08
2023-05-05T21:39:28.517Z,47.18
2023-05-05T21:41:55.069Z,47.18
2023-05-05T21:44:21.621Z,47.05
2023-05-05T21:46:48.344Z,47.25
2023-05-05T21:49:14.919Z,47.27
2023-05-05T21:51:41.475Z,47.51
2023-05-05T21:54:08.014Z,47.69
2023-05-05T21:56:34.583Z,47.79
2023-05-05T21:59:01.141Z,47.67
2023-05-05T22:01:27.702Z,47.71
2023-05-05T22:03:54.434Z,47.82
2023-05-05T22:06:21.091Z,47.63
2023-05-05T22:08:47.656Z,47.74
2023-05-05T22:11:14.195Z,47.57
2023-05-05T22:13:40.736Z,47.42
2023-05-05T22:16:07.298Z,47.42
2023-05-05T22:18:33.887Z,47.36
2023-05-05T22:21:00.433Z,47.24
2023-05-05T22:23:26.991Z,47.29
2023-05-05T22:25:53.531Z,47.23
2023-05-05T22:28:20.052Z,47.07
2023-05-05T22:30:46.587Z,47.16
2023-05-05T22:33:13.232Z,47.51
2023-05-05T22:35:39.786Z,47.49
2023-05-05T22:38:06.315Z,47.58
2023-05-05T22:40:32.873Z,47.62
2023-05-05T22:42:59.406Z,47.60
2023-05-05T22:45:25.946Z,47.75
2023-05-05T22:47:52.544Z,47.67
2023-05-05T22:50:19.100Z,47.68
2023-05-05T22:52:45.652Z,47.73
2023-05-05T22:55:12.408Z,47.83
2023-05-05T22:57:38.989Z,47.70
2023-05-05T23:00:06.075Z,47.83
2023-05-05T23:02:32.631Z,47.91
2023-05-05T23:04:59.205Z,47.82
2023-05-05T23:07:25.733Z,47.82
2023-05-05T23:09:52.258Z,47.80
2023-05-05T23:12:18.800Z,47.76
2023-05-05T23:14:45.326Z,47.92
2023-05-05T23:17:11.945Z,47.97
2023-05-05T23:19:38.492Z,47.93
2023-05-05T23:22:05.082Z,47.91
2023-05-05T23:24:31.640Z,47.92
2023-05-05T23:26:58.191Z,48.03
2023-05-05T23:29:24.756Z,47.92
2023-05-05T23:31:51.325Z,48.03
2023-05-05T23:34:17.868Z,48.04
2023-05-05T23:36:44.435Z,47.92
2023-05-05T23:39:10.978Z,47.34
2023-05-05T23:41:37.535Z,47.24
2023-05-05T23:44:04.081Z,47.31
2023-05-05T23:46:30.695Z,47.11
2023-05-05T23:48:57.275Z,47.18
2023-05-05T23:51:23.821Z,47.35
2023-05-05T23:53:50.352Z,47.68
2023-05-05T23:56:16.928Z,47.77
2023-05-05T23:58:43.534Z,47.99
